Página principal
METAR-TAF:

METAR-TAF

Aeroportos :

Aeroporto Humberto Delgado

Lisboa, Portugal

latitude: 38-46N, longitude: 009-08W, altura: 114 m

Observação actual do tempo

O boletim foi feito há 32 minutos, às 03:30 UTC
Vento 7 kt de noroeste
Temperatura 22°C
Humidade 69%
Pressão 1020 hPa
Visibilidade 10 km ou mais
sem nuvens abaixo de 1500 metros e sem cumulonimbus

METAR: LPPT 240330Z 32007KT CAVOK 22/16 Q1020

Hora: 05:02 (04:02 UTC)

Previsão

O boletim foi feito há 5 horas e 2 minutos, às 23:00 UTC
Previsão válida de 24 às 00 UTC a 25 às 06 UTC
Vento 7 kt de norte
Visibilidade 10 km ou mais
sem nuvens abaixo de 1500 metros e sem cumulonimbus
Tornando-se
de 24 às 08 UTC a 24 às 11 UTC
Vento 5 kt de es-nordeste
Tornando-se
de 24 às 15 UTC a 24 às 17 UTC
Vento 10 kt de nor-noroeste

TAF: LPPT 232300Z 2400/2506 35007KT CAVOK BECMG 2408/2411 06005KT BECMG 2415/2417 34010KT

Observações e previsões do tempo de mais de 4000 aeroportos (mensagens METAR e TAF).

As estações disponíveis são os pontos amarelos e vermelhos sobre o mapa.

Mova o rato sobre o mapa para ver o nome da estação.

Depois clique no ponto para visualizar as observações e previsões meteorológicas.

Para alterar o mapa : clique nos botões verdes com uma cruz preta para aumentar o zoom; no botão verde com uma pitada de zoom; ou nas setas verdes para mapas adjacentes.


METAR-TAF: